Shagang Hongfa — 9V9138 — position and weather

sailwx.info

Track history (hours):
 
Tides and Currents Weather Stations Pressure Air Temp Water Temp Dewpoint Dewpoint Depression Visibility Wind Speed Wind Dir Waves Ship Positions

Shagang Hongfa

Last reported at 2016-Jul-23 07:14 UTC. Time now 2016-Jul-23 09:17 UTC.
Position N 31°56' E 120°08'.

Length 292 m; draft 10.8 m.

Type: Cargo ship. MMSI: 566178000.

Date/timePositionNaut miles runAvg speedWind from/ knotsBaromVisibWave heightAir tempDewpointWater temp
2016-Jul-23 07:14N 31°56' E 120°08'1 1.7
2016-Jul-23 06:30N 31°56' E 120°10'14 7.0
2016-Jul-23 04:34N 32°01' E 120°24'8 8.3
2016-Jul-23 03:33N 32°01' E 120°34'9 7.8
2016-Jul-23 02:26N 32°01' E 120°45'8 8.1
2016-Jul-23 01:26N 31°56' E 120°52'910.2
2016-Jul-23 00:33N 31°47' E 120°56'10 9.6
2016-Jul-22 23:33N 31°44' E 121°07'9 9.3
2016-Jul-22 22:33N 31°38' E 121°15'5 5.3
2016-Jul-22 21:33N 31°35' E 121°20'0 0.2
2016-Jul-22 20:33N 31°35' E 121°20'0 0.3
2016-Jul-22 19:33N 31°35' E 121°20'0 0.0
2016-Jul-22 18:33N 31°35' E 121°20'0 0.0
2016-Jul-22 17:33N 31°35' E 121°20'0 0.2
2016-Jul-22 16:30N 31°35' E 121°20'0 0.1
2016-Jul-22 15:33N 31°35' E 121°20'0 0.1
2016-Jul-22 14:33N 31°35' E 121°20'0 0.1
2016-Jul-22 13:33N 31°35' E 121°20'0 0.0
2016-Jul-22 12:33N 31°35' E 121°20'0 0.0
2016-Jul-22 11:33N 31°35' E 121°20'0 0.1
2016-Jul-22 10:33N 31°35' E 121°20'0 0.1
2016-Jul-22 09:33N 31°35' E 121°20'0 0.2
2016-Jul-22 08:32N 31°35' E 121°20'3 3.0
2016-Jul-22 07:33N 31°32' E 121°22'2110.5
2016-Jul-22 05:33N 31°20' E 121°42'1111.5
2016-Jul-22 04:33N 31°16' E 121°54'33 9.5
2016-Jul-22 01:04N 31°07' E 122°32'4 8.0
2016-Jul-22 00:31N 31°07' E 122°37'11 1.3
2016-Jul-21 16:11N 31°01' E 122°47'0 0.1
2016-Jul-21 15:23N 31°01' E 122°47'0 0.0
2016-Jul-21 00:32N 31°01' E 122°47'0 0.1
2016-Jul-20 22:17N 31°01' E 122°47'0 0.0
2016-Jul-20 20:08N 31°01' E 122°47'0 0.1
2016-Jul-20 19:14N 31°01' E 122°47'0 0.0
2016-Jul-20 18:29N 31°01' E 122°47'  
2016-Jul-13 13:17N 30°48' E 123°02'2011.0
2016-Jul-13 11:29N 30°29' E 123°05'  
Track history (hours):
 
Tides and Currents Weather Stations Pressure Air Temp Water Temp Dewpoint Dewpoint Depression Visibility Wind Speed Wind Dir Waves Ship Positions

Shagang Hongfa

Last reported at 2016-Jul-23 07:14 UTC. Time now 2016-Jul-23 09:17 UTC.
Position N 31°56' E 120°08'.

Length 292 m; draft 10.8 m.

Type: Cargo ship. MMSI: 566178000.

Date/timePositionNaut miles runAvg speedWind from/ knotsBaromVisibWave heightAir tempDewpointWater temp
2016-Jul-23 07:14N 31°56' E 120°08'1 1.7
2016-Jul-23 06:30N 31°56' E 120°10'14 7.0
2016-Jul-23 04:34N 32°01' E 120°24'8 8.3
2016-Jul-23 03:33N 32°01' E 120°34'9 7.8
2016-Jul-23 02:26N 32°01' E 120°45'8 8.1
2016-Jul-23 01:26N 31°56' E 120°52'910.2
2016-Jul-23 00:33N 31°47' E 120°56'10 9.6
2016-Jul-22 23:33N 31°44' E 121°07'9 9.3
2016-Jul-22 22:33N 31°38' E 121°15'5 5.3
2016-Jul-22 21:33N 31°35' E 121°20'0 0.2
2016-Jul-22 20:33N 31°35' E 121°20'0 0.3
2016-Jul-22 19:33N 31°35' E 121°20'0 0.0
2016-Jul-22 18:33N 31°35' E 121°20'0 0.0
2016-Jul-22 17:33N 31°35' E 121°20'0 0.2
2016-Jul-22 16:30N 31°35' E 121°20'0 0.1
2016-Jul-22 15:33N 31°35' E 121°20'0 0.1
2016-Jul-22 14:33N 31°35' E 121°20'0 0.1
2016-Jul-22 13:33N 31°35' E 121°20'0 0.0
2016-Jul-22 12:33N 31°35' E 121°20'0 0.0
2016-Jul-22 11:33N 31°35' E 121°20'0 0.1
2016-Jul-22 10:33N 31°35' E 121°20'0 0.1
2016-Jul-22 09:33N 31°35' E 121°20'0 0.2
2016-Jul-22 08:32N 31°35' E 121°20'3 3.0
2016-Jul-22 07:33N 31°32' E 121°22'2110.5
2016-Jul-22 05:33N 31°20' E 121°42'1111.5
2016-Jul-22 04:33N 31°16' E 121°54'33 9.5
2016-Jul-22 01:04N 31°07' E 122°32'4 8.0
2016-Jul-22 00:31N 31°07' E 122°37'11 1.3
2016-Jul-21 16:11N 31°01' E 122°47'0 0.1
2016-Jul-21 15:23N 31°01' E 122°47'0 0.0
2016-Jul-21 00:32N 31°01' E 122°47'0 0.1
2016-Jul-20 22:17N 31°01' E 122°47'0 0.0
2016-Jul-20 20:08N 31°01' E 122°47'0 0.1
2016-Jul-20 19:14N 31°01' E 122°47'0 0.0
2016-Jul-20 18:29N 31°01' E 122°47'  
2016-Jul-13 13:17N 30°48' E 123°02'2011.0
2016-Jul-13 11:29N 30°29' E 123°05'  

Dump ship's entire track history